sensor_id;sensor_type;location;lat;lon;timestamp;pressure;altitude;pressure_sealevel;temperature;humidity
4836;BME280;66719;51.226;6.902;2023-03-19T00:01:59;100345.94;;;10.08;100.00
4836;BME280;66719;51.226;6.902;2023-03-19T00:04:42;100354.56;;;10.11;100.00
4836;BME280;66719;51.226;6.902;2023-03-19T00:07:08;100347.66;;;10.07;100.00
4836;BME280;66719;51.226;6.902;2023-03-19T00:09:35;100346.78;;;10.08;100.00
4836;BME280;66719;51.226;6.902;2023-03-19T00:12:02;100348.50;;;10.09;100.00
4836;BME280;66719;51.226;6.902;2023-03-19T00:14:28;100349.38;;;10.10;100.00
4836;BME280;66719;51.226;6.902;2023-03-19T00:16:55;100350.19;;;10.12;100.00
4836;BME280;66719;51.226;6.902;2023-03-19T00:19:22;100351.91;;;10.13;100.00
4836;BME280;66719;51.226;6.902;2023-03-19T00:21:48;100345.03;;;10.09;100.00
4836;BME280;66719;51.226;6.902;2023-03-19T00:24:15;100342.50;;;10.04;100.00
4836;BME280;66719;51.226;6.902;2023-03-19T00:26:43;100341.66;;;10.04;100.00
4836;BME280;66719;51.226;6.902;2023-03-19T00:29:09;100349.47;;;10.05;100.00
4836;BME280;66719;51.226;6.902;2023-03-19T00:31:39;100347.78;;;10.03;100.00
4836;BME280;66719;51.226;6.902;2023-03-19T00:34:08;100347.13;;;9.93;100.00
4836;BME280;66719;51.226;6.902;2023-03-19T00:36:35;100344.56;;;9.91;100.00
4836;BME280;66719;51.226;6.902;2023-03-19T00:39:03;100340.31;;;9.86;100.00
4836;BME280;66719;51.226;6.902;2023-03-19T00:41:30;100346.50;;;9.82;100.00
4836;BME280;66719;51.226;6.902;2023-03-19T00:43:58;100350.94;;;9.78;100.00
4836;BME280;66719;51.226;6.902;2023-03-19T00:46:25;100351.06;;;9.72;100.00
4836;BME280;66719;51.226;6.902;2023-03-19T00:48:52;100356.34;;;9.69;100.00
4836;BME280;66719;51.226;6.902;2023-03-19T00:51:22;100350.31;;;9.67;100.00
4836;BME280;66719;51.226;6.902;2023-03-19T00:53:49;100349.47;;;9.65;100.00
4836;BME280;66719;51.226;6.902;2023-03-19T00:56:17;100347.75;;;9.64;100.00
4836;BME280;66719;51.226;6.902;2023-03-19T00:58:44;100339.03;;;9.63;100.00
4836;BME280;66719;51.226;6.902;2023-03-19T01:01:12;100342.50;;;9.64;100.00
4836;BME280;66719;51.226;6.902;2023-03-19T01:03:40;100343.41;;;9.63;100.00
4836;BME280;66719;51.226;6.902;2023-03-19T01:06:07;100345.16;;;9.62;100.00
4836;BME280;66719;51.226;6.902;2023-03-19T01:08:33;100351.31;;;9.60;100.00
4836;BME280;66719;51.226;6.902;2023-03-19T01:11:09;100357.78;;;9.42;100.00
4836;BME280;66719;51.226;6.902;2023-03-19T01:13:37;100350.84;;;9.41;100.00
4836;BME280;66719;51.226;6.902;2023-03-19T01:16:04;100350.03;;;9.38;100.00
4836;BME280;66719;51.226;6.902;2023-03-19T01:18:32;100353.66;;;9.30;100.00
4836;BME280;66719;51.226;6.902;2023-03-19T01:20:58;100352.88;;;9.25;100.00
4836;BME280;66719;51.226;6.902;2023-03-19T01:23:25;100351.13;;;9.26;100.00
4836;BME280;66719;51.226;6.902;2023-03-19T01:25:52;100351.03;;;9.32;100.00
4836;BME280;66719;51.226;6.902;2023-03-19T01:28:19;100352.16;;;9.17;100.00
4836;BME280;66719;51.226;6.902;2023-03-19T01:30:45;100349.59;;;9.16;100.00
4836;BME280;66719;51.226;6.902;2023-03-19T01:33:12;100344.28;;;9.19;100.00
4836;BME280;66719;51.226;6.902;2023-03-19T01:35:39;100340.75;;;9.23;100.00
4836;BME280;66719;51.226;6.902;2023-03-19T01:38:05;100339.91;;;9.22;100.00
4836;BME280;66719;51.226;6.902;2023-03-19T01:40:33;100325.88;;;9.26;100.00
4836;BME280;66719;51.226;6.902;2023-03-19T01:43:21;100324.94;;;9.29;100.00
4836;BME280;66719;51.226;6.902;2023-03-19T01:45:57;100325.78;;;9.29;100.00
4836;BME280;66719;51.226;6.902;2023-03-19T01:48:54;100320.00;;;9.15;100.00
4836;BME280;66719;51.226;6.902;2023-03-19T01:51:27;100326.34;;;9.02;100.00
4836;BME280;66719;51.226;6.902;2023-03-19T01:53:58;100335.28;;;8.89;100.00
4836;BME280;66719;51.226;6.902;2023-03-19T01:56:29;100325.88;;;8.80;100.00
4836;BME280;66719;51.226;6.902;2023-03-19T01:59:05;100333.78;;;8.75;100.00
4836;BME280;66719;51.226;6.902;2023-03-19T02:01:36;100326.75;;;8.81;100.00
4836;BME280;66719;51.226;6.902;2023-03-19T02:04:05;100326.66;;;8.84;100.00
4836;BME280;66719;51.226;6.902;2023-03-19T02:06:33;100332.94;;;8.73;100.00
4836;BME280;66719;51.226;6.902;2023-03-19T02:09:00;100325.97;;;8.74;100.00
4836;BME280;66719;51.226;6.902;2023-03-19T02:11:28;100325.34;;;8.61;100.00
4836;BME280;66719;51.226;6.902;2023-03-19T02:13:54;100332.38;;;8.56;100.00
4836;BME280;66719;51.226;6.902;2023-03-19T02:16:21;100326.25;;;8.60;100.00
4836;BME280;66719;51.226;6.902;2023-03-19T02:18:48;100327.84;;;8.66;100.00
4836;BME280;66719;51.226;6.902;2023-03-19T02:21:16;100330.44;;;8.67;100.00
4836;BME280;66719;51.226;6.902;2023-03-19T02:24:05;100329.50;;;8.71;100.00
4836;BME280;66719;51.226;6.902;2023-03-19T02:26:34;100324.28;;;8.71;100.00
4836;BME280;66719;51.226;6.902;2023-03-19T02:29:01;100328.63;;;8.72;100.00
4836;BME280;66719;51.226;6.902;2023-03-19T02:31:29;100327.78;;;8.70;100.00
4836;BME280;66719;51.226;6.902;2023-03-19T02:34:05;100330.34;;;8.73;100.00
4836;BME280;66719;51.226;6.902;2023-03-19T02:36:35;100328.59;;;8.74;100.00
4836;BME280;66719;51.226;6.902;2023-03-19T02:39:05;100334.66;;;8.74;100.00
4836;BME280;66719;51.226;6.902;2023-03-19T02:41:36;100325.13;;;8.73;100.00
4836;BME280;66719;51.226;6.902;2023-03-19T02:44:05;100332.03;;;8.76;100.00
4836;BME280;66719;51.226;6.902;2023-03-19T02:46:33;100330.34;;;8.73;100.00
4836;BME280;66719;51.226;6.902;2023-03-19T02:48:59;100321.59;;;8.76;100.00
4836;BME280;66719;51.226;6.902;2023-03-19T02:51:26;100319.91;;;8.73;100.00
4836;BME280;66719;51.226;6.902;2023-03-19T02:53:52;100324.16;;;8.79;100.00
4836;BME280;66719;51.226;6.902;2023-03-19T02:56:19;100329.41;;;8.77;100.00
4836;BME280;66719;51.226;6.902;2023-03-19T02:58:45;100323.31;;;8.78;100.00
4836;BME280;66719;51.226;6.902;2023-03-19T03:01:12;100326.81;;;8.77;100.00
4836;BME280;66719;51.226;6.902;2023-03-19T03:03:39;100327.84;;;8.66;100.00
4836;BME280;66719;51.226;6.902;2023-03-19T03:06:05;100327.78;;;8.70;100.00
4836;BME280;66719;51.226;6.902;2023-03-19T03:08:32;100327.78;;;8.70;100.00
4836;BME280;66719;51.226;6.902;2023-03-19T03:10:58;100322.47;;;8.75;100.00
4836;BME280;66719;51.226;6.902;2023-03-19T03:13:25;100325.06;;;8.78;100.00
4836;BME280;66719;51.226;6.902;2023-03-19T03:15:53;100330.09;;;8.86;100.00
4836;BME280;66719;51.226;6.902;2023-03-19T03:18:19;100321.41;;;8.87;100.00
4836;BME280;66719;51.226;6.902;2023-03-19T03:20:46;100334.38;;;8.91;100.00
4836;BME280;66719;51.226;6.902;2023-03-19T03:23:13;100328.22;;;8.94;100.00
4836;BME280;66719;51.226;6.902;2023-03-19T03:25:39;100330.75;;;8.98;100.00
4836;BME280;66719;51.226;6.902;2023-03-19T03:28:06;100332.38;;;9.05;100.00
4836;BME280;66719;51.226;6.902;2023-03-19T03:30:33;100336.56;;;9.14;100.00
4836;BME280;66719;51.226;6.902;2023-03-19T03:32:59;100340.78;;;9.21;100.00
4836;BME280;66719;51.226;6.902;2023-03-19T03:35:26;100338.00;;;9.29;100.00
4836;BME280;66719;51.226;6.902;2023-03-19T03:37:53;100343.16;;;9.33;100.00
4836;BME280;66719;51.226;6.902;2023-03-19T03:40:20;100346.63;;;9.34;100.00
4836;BME280;66719;51.226;6.902;2023-03-19T03:42:47;100351.78;;;9.37;100.00
4836;BME280;66719;51.226;6.902;2023-03-19T03:45:13;100344.78;;;9.39;100.00
4836;BME280;66719;51.226;6.902;2023-03-19T03:47:40;100356.06;;;9.41;100.00
4836;BME280;66719;51.226;6.902;2023-03-19T03:50:07;100354.19;;;9.48;100.00
4836;BME280;66719;51.226;6.902;2023-03-19T03:52:36;100353.16;;;9.55;100.00
4836;BME280;66719;51.226;6.902;2023-03-19T03:55:04;100365.28;;;9.59;100.00
4836;BME280;66719;51.226;6.902;2023-03-19T03:57:30;100359.97;;;9.62;100.00
4836;BME280;66719;51.226;6.902;2023-03-19T03:59:57;100359.94;;;9.65;100.00
4836;BME280;66719;51.226;6.902;2023-03-19T04:02:23;100361.66;;;9.66;100.00
4836;BME280;66719;51.226;6.902;2023-03-19T04:04:50;100364.22;;;9.68;100.00
4836;BME280;66719;51.226;6.902;2023-03-19T04:07:17;100362.44;;;9.70;100.00
4836;BME280;66719;51.226;6.902;2023-03-19T04:09:43;100366.78;;;9.71;100.00
4836;BME280;66719;51.226;6.902;2023-03-19T04:12:14;100368.50;;;9.73;100.00
4836;BME280;66719;51.226;6.902;2023-03-19T04:14:41;100372.81;;;9.74;100.00
4836;BME280;66719;51.226;6.902;2023-03-19T04:17:08;100365.84;;;9.75;100.00
4836;BME280;66719;51.226;6.902;2023-03-19T04:19:34;100368.38;;;9.78;100.00
4836;BME280;66719;51.226;6.902;2023-03-19T04:22:01;100365.72;;;9.79;100.00
4836;BME280;66719;51.226;6.902;2023-03-19T04:24:28;100371.81;;;9.80;100.00
4836;BME280;66719;51.226;6.902;2023-03-19T04:26:55;100373.53;;;9.81;100.00
4836;BME280;66719;51.226;6.902;2023-03-19T04:29:21;100375.28;;;9.80;100.00
4836;BME280;66719;51.226;6.902;2023-03-19T04:31:49;100375.28;;;9.82;100.00
4836;BME280;66719;51.226;6.902;2023-03-19T04:34:16;100379.63;;;9.81;100.00
4836;BME280;66719;51.226;6.902;2023-03-19T04:36:42;100380.50;;;9.80;100.00
4836;BME280;66719;51.226;6.902;2023-03-19T04:39:09;100377.00;;;9.83;100.00
4836;BME280;66719;51.226;6.902;2023-03-19T04:41:35;100379.66;;;9.80;100.00
4836;BME280;66719;51.226;6.902;2023-03-19T04:44:02;100377.88;;;9.82;100.00
4836;BME280;66719;51.226;6.902;2023-03-19T04:46:29;100382.22;;;9.81;100.00
4836;BME280;66719;51.226;6.902;2023-03-19T04:48:55;100378.75;;;9.81;100.00
4836;BME280;66719;51.226;6.902;2023-03-19T04:51:22;100376.13;;;9.81;100.00
4836;BME280;66719;51.226;6.902;2023-03-19T04:53:49;100383.97;;;9.81;100.00
4836;BME280;66719;51.226;6.902;2023-03-19T04:56:15;100388.34;;;9.82;100.00
4836;BME280;66719;51.226;6.902;2023-03-19T04:58:43;100393.56;;;9.82;100.00
4836;BME280;66719;51.226;6.902;2023-03-19T05:01:10;100383.97;;;9.81;100.00
4836;BME280;66719;51.226;6.902;2023-03-19T05:03:37;100388.34;;;9.82;100.00
4836;BME280;66719;51.226;6.902;2023-03-19T05:06:03;100393.53;;;9.83;100.00
4836;BME280;66719;51.226;6.902;2023-03-19T05:08:30;100397.06;;;9.82;100.00
4836;BME280;66719;51.226;6.902;2023-03-19T05:10:57;100394.44;;;9.82;100.00
4836;BME280;66719;51.226;6.902;2023-03-19T05:13:23;100390.94;;;9.83;100.00
4836;BME280;66719;51.226;6.902;2023-03-19T05:15:52;100392.69;;;9.83;100.00
4836;BME280;66719;51.226;6.902;2023-03-19T05:18:19;100395.25;;;9.84;100.00
4836;BME280;66719;51.226;6.902;2023-03-19T05:20:45;100403.06;;;9.86;100.00
4836;BME280;66719;51.226;6.902;2023-03-19T05:23:12;100405.69;;;9.86;100.00
4836;BME280;66719;51.226;6.902;2023-03-19T05:25:39;100403.94;;;9.86;100.00
4836;BME280;66719;51.226;6.902;2023-03-19T05:28:06;100408.25;;;9.87;100.00
4836;BME280;66719;51.226;6.902;2023-03-19T05:30:34;100403.88;;;9.88;100.00
4836;BME280;66719;51.226;6.902;2023-03-19T05:33:01;100414.34;;;9.88;100.00
4836;BME280;66719;51.226;6.902;2023-03-19T05:35:28;100416.91;;;9.89;100.00
4836;BME280;66719;51.226;6.902;2023-03-19T05:37:56;100408.22;;;9.89;100.00
4836;BME280;66719;51.226;6.902;2023-03-19T05:40:23;100411.69;;;9.89;100.00
4836;BME280;66719;51.226;6.902;2023-03-19T05:42:50;100405.59;;;9.90;100.00
4836;BME280;66719;51.226;6.902;2023-03-19T05:45:16;100411.69;;;9.89;100.00
4836;BME280;66719;51.226;6.902;2023-03-19T05:47:46;100421.28;;;9.90;100.00
4836;BME280;66719;51.226;6.902;2023-03-19T05:50:13;100413.44;;;9.90;100.00
4836;BME280;66719;51.226;6.902;2023-03-19T05:52:39;100419.53;;;9.91;100.00
4836;BME280;66719;51.226;6.902;2023-03-19T05:55:06;100420.41;;;9.91;100.00
4836;BME280;66719;51.226;6.902;2023-03-19T05:57:33;100422.09;;;9.93;100.00
4836;BME280;66719;51.226;6.902;2023-03-19T06:00:00;100429.97;;;9.93;100.00
4836;BME280;66719;51.226;6.902;2023-03-19T06:02:26;100427.31;;;9.94;100.00
4836;BME280;66719;51.226;6.902;2023-03-19T06:04:53;100422.03;;;9.96;100.00
4836;BME280;66719;51.226;6.902;2023-03-19T06:07:20;100429.81;;;9.99;100.00
4836;BME280;66719;51.226;6.902;2023-03-19T06:09:46;100437.66;;;10.00;100.00
4836;BME280;66719;51.226;6.902;2023-03-19T06:12:13;100436.78;;;10.00;100.00
4836;BME280;66719;51.226;6.902;2023-03-19T06:14:39;100447.25;;;10.00;100.00
4836;BME280;66719;51.226;6.902;2023-03-19T06:17:06;100442.84;;;10.02;100.00
4836;BME280;66719;51.226;6.902;2023-03-19T06:19:32;100449.78;;;10.03;100.00
4836;BME280;66719;51.226;6.902;2023-03-19T06:21:59;100451.50;;;10.04;100.00
4836;BME280;66719;51.226;6.902;2023-03-19T06:24:26;100445.38;;;10.05;100.00
4836;BME280;66719;51.226;6.902;2023-03-19T06:26:55;100447.94;;;10.08;100.00
4836;BME280;66719;51.226;6.902;2023-03-19T06:29:22;100459.25;;;10.10;100.00
4836;BME280;66719;51.226;6.902;2023-03-19T06:31:48;100459.25;;;10.10;100.00
4836;BME280;66719;51.226;6.902;2023-03-19T06:34:15;100458.34;;;10.11;100.00
4836;BME280;66719;51.226;6.902;2023-03-19T06:36:41;100464.44;;;10.11;100.00
4836;BME280;66719;51.226;6.902;2023-03-19T06:39:08;100462.59;;;10.15;100.00
4836;BME280;66719;51.226;6.902;2023-03-19T06:41:35;100469.56;;;10.16;100.00
4836;BME280;66719;51.226;6.902;2023-03-19T06:44:03;100471.31;;;10.17;100.00
4836;BME280;66719;51.226;6.902;2023-03-19T06:46:29;100467.81;;;10.16;100.00
4836;BME280;66719;51.226;6.902;2023-03-19T06:48:56;100466.03;;;10.18;100.00
4836;BME280;66719;51.226;6.902;2023-03-19T06:51:23;100475.56;;;10.23;100.00
4836;BME280;66719;51.226;6.902;2023-03-19T06:53:53;100473.78;;;10.23;100.00
4836;BME280;66719;51.226;6.902;2023-03-19T06:56:20;100473.84;;;10.20;100.00
4836;BME280;66719;51.226;6.902;2023-03-19T06:58:46;100467.78;;;10.18;100.00
4836;BME280;66719;51.226;6.902;2023-03-19T07:01:13;100472.97;;;10.19;100.00
4836;BME280;66719;51.226;6.902;2023-03-19T07:03:39;100477.34;;;10.19;100.00
4836;BME280;66719;51.226;6.902;2023-03-19T07:06:06;100478.22;;;10.19;100.00
4836;BME280;66719;51.226;6.902;2023-03-19T07:08:32;100480.78;;;10.21;100.00
4836;BME280;66719;51.226;6.902;2023-03-19T07:11:06;100475.50;;;10.24;100.00
4836;BME280;66719;51.226;6.902;2023-03-19T07:13:33;100481.53;;;10.29;100.00
4836;BME280;66719;51.226;6.902;2023-03-19T07:15:59;100485.81;;;10.32;100.00
4836;BME280;66719;51.226;6.902;2023-03-19T07:18:26;100478.78;;;10.35;100.00
4836;BME280;66719;51.226;6.902;2023-03-19T07:20:53;100490.00;;;10.40;100.00
4836;BME280;66719;51.226;6.902;2023-03-19T07:23:19;100488.22;;;10.42;100.00
4836;BME280;66719;51.226;6.902;2023-03-19T07:25:46;100490.78;;;10.45;100.00
4836;BME280;66719;51.226;6.902;2023-03-19T07:28:14;100488.91;;;10.51;100.00
4836;BME280;66719;51.226;6.902;2023-03-19T07:30:40;100498.38;;;10.56;100.00
4836;BME280;66719;51.226;6.902;2023-03-19T07:33:07;100506.16;;;10.61;100.00
4836;BME280;66719;51.226;6.902;2023-03-19T07:35:34;100515.69;;;10.63;100.00
4836;BME280;66719;51.226;6.902;2023-03-19T07:38:01;100509.59;;;10.63;100.00
4836;BME280;66719;51.226;6.902;2023-03-19T07:40:28;100517.38;;;10.66;100.00
4836;BME280;66719;51.226;6.902;2023-03-19T07:42:54;100510.31;;;10.69;100.00
4836;BME280;66719;51.226;6.902;2023-03-19T07:45:21;100518.00;;;10.75;100.00
4836;BME280;66719;51.226;6.902;2023-03-19T07:47:50;100525.78;;;10.80;100.00
4836;BME280;66719;51.226;6.902;2023-03-19T07:50:17;100521.44;;;10.79;100.00
4836;BME280;66719;51.226;6.902;2023-03-19T07:52:45;100523.16;;;10.80;100.00
4836;BME280;66719;51.226;6.902;2023-03-19T07:55:13;100527.47;;;10.83;100.00
4836;BME280;66719;51.226;6.902;2023-03-19T07:57:40;100533.50;;;10.86;100.00
4836;BME280;66719;51.226;6.902;2023-03-19T08:00:09;100535.22;;;10.87;100.00
4836;BME280;66719;51.226;6.902;2023-03-19T08:02:35;100528.28;;;10.86;100.00
4836;BME280;66719;51.226;6.902;2023-03-19T08:05:02;100538.66;;;10.89;100.00
4836;BME280;66719;51.226;6.902;2023-03-19T08:07:30;100538.75;;;10.86;100.00
4836;BME280;66719;51.226;6.902;2023-03-19T08:09:57;100536.94;;;10.88;100.00
4836;BME280;66719;51.226;6.902;2023-03-19T08:12:24;100532.59;;;10.87;100.00
4836;BME280;66719;51.226;6.902;2023-03-19T08:14:51;100529.13;;;10.85;100.00
4836;BME280;66719;51.226;6.902;2023-03-19T08:17:17;100537.00;;;10.85;100.00
4836;BME280;66719;51.226;6.902;2023-03-19T08:19:44;100530.94;;;10.83;100.00
4836;BME280;66719;51.226;6.902;2023-03-19T08:22:12;100540.50;;;10.84;100.00
4836;BME280;66719;51.226;6.902;2023-03-19T08:24:39;100537.94;;;10.83;100.00
4836;BME280;66719;51.226;6.902;2023-03-19T08:27:05;100543.97;;;10.86;100.00
4836;BME280;66719;51.226;6.902;2023-03-19T08:29:33;100539.53;;;10.90;100.00
4836;BME280;66719;51.226;6.902;2023-03-19T08:32:00;100544.59;;;10.97;100.00
4836;BME280;66719;51.226;6.902;2023-03-19T08:34:26;100544.47;;;11.03;100.00
4836;BME280;66719;51.226;6.902;2023-03-19T08:36:53;100550.56;;;11.04;100.00
4836;BME280;66719;51.226;6.902;2023-03-19T08:39:19;100555.66;;;11.09;100.00
4836;BME280;66719;51.226;6.902;2023-03-19T08:41:46;100554.72;;;11.13;100.00
4836;BME280;66719;51.226;6.902;2023-03-19T08:44:12;100558.03;;;11.21;100.00
4836;BME280;66719;51.226;6.902;2023-03-19T08:46:39;100568.28;;;11.28;100.00
4836;BME280;66719;51.226;6.902;2023-03-19T08:49:08;100564.66;;;11.34;100.00
4836;BME280;66719;51.226;6.902;2023-03-19T08:51:34;100562.72;;;11.42;100.00
4836;BME280;66719;51.226;6.902;2023-03-19T08:54:01;100560.66;;;11.55;100.00
4836;BME280;66719;51.226;6.902;2023-03-19T08:56:28;100567.47;;;11.62;100.00
4836;BME280;66719;51.226;6.902;2023-03-19T08:58:55;100564.78;;;11.65;100.00
4836;BME280;66719;51.226;6.902;2023-03-19T09:01:22;100563.84;;;11.68;100.00
4836;BME280;66719;51.226;6.902;2023-03-19T09:03:49;100565.47;;;11.72;100.00
4836;BME280;66719;51.226;6.902;2023-03-19T09:06:16;100567.09;;;11.77;100.00
4836;BME280;66719;51.226;6.902;2023-03-19T09:08:43;100567.63;;;11.90;100.00
4836;BME280;66719;51.226;6.902;2023-03-19T09:11:10;100562.19;;;11.98;100.00
4836;BME280;66719;51.226;6.902;2023-03-19T09:13:36;100565.50;;;12.04;100.00
4836;BME280;66719;51.226;6.902;2023-03-19T09:16:03;100561.13;;;12.05;100.00
4836;BME280;66719;51.226;6.902;2023-03-19T09:18:30;100561.97;;;12.05;100.00
4836;BME280;66719;51.226;6.902;2023-03-19T09:20:57;100566.16;;;12.12;100.00
4836;BME280;66719;51.226;6.902;2023-03-19T09:23:24;100571.38;;;12.14;100.00
4836;BME280;66719;51.226;6.902;2023-03-19T09:25:51;100567.72;;;12.20;100.00
4836;BME280;66719;51.226;6.902;2023-03-19T09:28:17;100568.53;;;12.22;100.00
4836;BME280;66719;51.226;6.902;2023-03-19T09:30:46;100574.53;;;12.27;100.00
4836;BME280;66719;51.226;6.902;2023-03-19T09:33:14;100578.03;;;12.27;100.00
4836;BME280;66719;51.226;6.902;2023-03-19T09:35:41;100576.31;;;12.25;100.00
4836;BME280;66719;51.226;6.902;2023-03-19T09:38:08;100583.38;;;12.23;100.00
4836;BME280;66719;51.226;6.902;2023-03-19T09:40:42;100585.84;;;12.29;100.00
4836;BME280;66719;51.226;6.902;2023-03-19T09:43:40;100583.88;;;12.37;100.00
4836;BME280;66719;51.226;6.902;2023-03-19T09:46:16;100587.03;;;12.48;100.00
4836;BME280;66719;51.226;6.902;2023-03-19T09:49:05;100591.25;;;12.54;100.00
4836;BME280;66719;51.226;6.902;2023-03-19T09:51:42;100598.28;;;12.53;100.00
4836;BME280;66719;51.226;6.902;2023-03-19T09:54:30;100586.06;;;12.52;100.00
4836;BME280;66719;51.226;6.902;2023-03-19T09:56:59;100593.84;;;12.55;100.00
4836;BME280;66719;51.226;6.902;2023-03-19T09:59:27;100596.47;;;12.55;100.00
4836;BME280;66719;51.226;6.902;2023-03-19T10:02:05;100594.66;;;12.57;100.00
4836;BME280;66719;51.226;6.902;2023-03-19T10:10:17;100595.13;;;12.71;100.00
4836;BME280;66719;51.226;6.902;2023-03-19T10:13:04;100598.66;;;12.70;100.00
4836;BME280;66719;51.226;6.902;2023-03-19T10:15:35;100598.72;;;12.67;100.00
4836;BME280;66719;51.226;6.902;2023-03-19T10:18:19;100599.53;;;12.71;100.00
4836;BME280;66719;51.226;6.902;2023-03-19T10:21:01;100599.47;;;12.72;100.00
4836;BME280;66719;51.226;6.902;2023-03-19T10:26:02;100602.09;;;12.72;100.00
4836;BME280;66719;51.226;6.902;2023-03-19T10:28:30;100600.28;;;12.74;100.00
4836;BME280;66719;51.226;6.902;2023-03-19T10:36:43;100618.22;;;12.90;100.00
4836;BME280;66719;51.226;6.902;2023-03-19T10:39:11;100614.56;;;12.94;100.00
4836;BME280;66719;51.226;6.902;2023-03-19T10:42:02;100618.75;;;13.01;100.00
4836;BME280;66719;51.226;6.902;2023-03-19T10:44:33;100615.84;;;13.10;100.00
4836;BME280;66719;51.226;6.902;2023-03-19T10:47:11;100620.88;;;13.18;100.00
4836;BME280;66719;51.226;6.902;2023-03-19T10:49:37;100621.69;;;13.20;100.00
4836;BME280;66719;51.226;6.902;2023-03-19T10:52:05;100623.53;;;13.16;100.00
4836;BME280;66719;51.226;6.902;2023-03-19T10:54:32;100617.47;;;13.14;100.00
4836;BME280;66719;51.226;6.902;2023-03-19T10:56:59;100615.03;;;13.08;100.00
4836;BME280;66719;51.226;6.902;2023-03-19T10:59:30;100618.63;;;13.06;100.00
4836;BME280;66719;51.226;6.902;2023-03-19T11:02:06;100623.09;;;13.02;100.00
4836;BME280;66719;51.226;6.902;2023-03-19T11:04:39;100618.75;;;13.01;100.00
4836;BME280;66719;51.226;6.902;2023-03-19T11:07:11;100625.16;;;12.92;100.00
4836;BME280;66719;51.226;6.902;2023-03-19T11:09:40;100623.59;;;12.87;100.00
4836;BME280;66719;51.226;6.902;2023-03-19T11:12:23;100618.44;;;12.82;100.00
4836;BME280;66719;51.226;6.902;2023-03-19T11:14:54;100628.00;;;12.85;100.00
4836;BME280;66719;51.226;6.902;2023-03-19T11:17:39;100620.22;;;12.82;100.00
4836;BME280;66719;51.226;6.902;2023-03-19T11:22:54;100624.38;;;12.89;100.00
4836;BME280;66719;51.226;6.902;2023-03-19T11:25:33;100624.28;;;12.92;100.00
4836;BME280;66719;51.226;6.902;2023-03-19T11:28:06;100624.22;;;12.93;100.00
4836;BME280;66719;51.226;6.902;2023-03-19T11:33:31;100619.25;;;12.86;100.00
4836;BME280;66719;51.226;6.902;2023-03-19T11:36:24;100625.56;;;12.79;100.00
4836;BME280;66719;51.226;6.902;2023-03-19T11:44:28;100623.75;;;12.51;100.00
4836;BME280;66719;51.226;6.902;2023-03-19T11:50:01;100604.22;;;12.29;100.00
4836;BME280;66719;51.226;6.902;2023-03-19T11:55:24;100594.78;;;12.22;100.00
4836;BME280;66719;51.226;6.902;2023-03-19T12:00:47;100600.19;;;12.17;100.00
4836;BME280;66719;51.226;6.902;2023-03-19T12:08:44;100602.25;;;12.04;100.00
4836;BME280;66719;51.226;6.902;2023-03-19T12:25:19;100594.16;;;11.78;100.00
4836;BME280;66719;51.226;6.902;2023-03-19T12:28:02;100592.44;;;11.77;100.00
4836;BME280;66719;51.226;6.902;2023-03-19T12:30:43;100585.28;;;11.85;100.00
4836;BME280;66719;51.226;6.902;2023-03-19T12:35:58;100578.53;;;12.09;100.00
4836;BME280;66719;51.226;6.902;2023-03-19T12:38:43;100585.50;;;12.10;100.00
4836;BME280;66719;51.226;6.902;2023-03-19T12:41:20;100582.91;;;12.08;100.00
4836;BME280;66719;51.226;6.902;2023-03-19T12:46:43;100587.31;;;12.06;100.00
4836;BME280;66719;51.226;6.902;2023-03-19T12:51:39;100584.69;;;12.08;100.00
4836;BME280;66719;51.226;6.902;2023-03-19T12:54:13;100581.97;;;12.11;100.00
4836;BME280;66719;51.226;6.902;2023-03-19T12:59:29;100583.25;;;12.27;100.00
4836;BME280;66719;51.226;6.902;2023-03-19T13:02:03;100567.31;;;12.35;100.00
4836;BME280;66719;51.226;6.902;2023-03-19T13:04:39;100574.31;;;12.34;100.00
4836;BME280;66719;51.226;6.902;2023-03-19T13:07:15;100580.50;;;12.32;100.00
4836;BME280;66719;51.226;6.902;2023-03-19T13:09:57;100577.88;;;12.32;100.00
4836;BME280;66719;51.226;6.902;2023-03-19T13:12:29;100575.19;;;12.33;100.00
4836;BME280;66719;51.226;6.902;2023-03-19T13:22:49;100582.19;;;12.34;100.00
4836;BME280;66719;51.226;6.902;2023-03-19T13:25:22;100571.81;;;12.30;100.00
4836;BME280;66719;51.226;6.902;2023-03-19T13:27:54;100567.59;;;12.24;100.00
4836;BME280;66719;51.226;6.902;2023-03-19T13:30:22;100571.13;;;12.23;100.00
4836;BME280;66719;51.226;6.902;2023-03-19T13:33:03;100566.72;;;12.24;100.00
4836;BME280;66719;51.226;6.902;2023-03-19T13:38:01;100573.88;;;12.19;100.00
4836;BME280;66719;51.226;6.902;2023-03-19T13:40:38;100566.91;;;12.18;100.00
4836;BME280;66719;51.226;6.902;2023-03-19T13:43:21;100562.59;;;12.15;100.00
4836;BME280;66719;51.226;6.902;2023-03-19T13:48:36;100561.72;;;12.14;100.00
4836;BME280;66719;51.226;6.902;2023-03-19T13:51:22;100559.09;;;12.14;100.00
4836;BME280;66719;51.226;6.902;2023-03-19T13:59:37;100558.03;;;12.22;100.00
4836;BME280;66719;51.226;6.902;2023-03-19T14:07:38;100560.06;;;12.43;100.00
4836;BME280;66719;51.226;6.902;2023-03-19T14:10:11;100567.63;;;12.54;100.00
4836;BME280;66719;51.226;6.902;2023-03-19T14:12:42;100564.84;;;12.60;100.00
4836;BME280;66719;51.226;6.902;2023-03-19T14:15:21;100561.13;;;12.65;100.00
4836;BME280;66719;51.226;6.902;2023-03-19T14:20:25;100563.72;;;12.96;100.00
4836;BME280;66719;51.226;6.902;2023-03-19T14:28:24;100575.84;;;13.56;100.00
4836;BME280;66719;51.226;6.902;2023-03-19T14:30:54;100582.09;;;13.52;100.00
4836;BME280;66719;51.226;6.902;2023-03-19T14:33:27;100579.41;;;13.27;100.00
4836;BME280;66719;51.226;6.902;2023-03-19T14:35:55;100584.44;;;13.06;100.00
4836;BME280;66719;51.226;6.902;2023-03-19T14:38:37;100575.16;;;12.94;100.00
4836;BME280;66719;51.226;6.902;2023-03-19T14:41:06;100581.56;;;12.85;100.00
4836;BME280;66719;51.226;6.902;2023-03-19T14:49:25;100580.03;;;12.78;100.00